sensor_id;sensor_type;location;lat;lon;timestamp;P1;durP1;ratioP1;P2;durP2;ratioP2
13061;SDS011;6597;52.218;9.882;2022-07-23T00:00:56;12.30;;;5.37;;
13061;SDS011;6597;52.218;9.882;2022-07-23T00:03:23;9.43;;;5.07;;
13061;SDS011;6597;52.218;9.882;2022-07-23T00:05:50;10.77;;;5.07;;
13061;SDS011;6597;52.218;9.882;2022-07-23T00:08:16;10.33;;;5.00;;
13061;SDS011;6597;52.218;9.882;2022-07-23T00:10:43;9.13;;;5.47;;
13061;SDS011;6597;52.218;9.882;2022-07-23T00:13:09;9.87;;;5.43;;
13061;SDS011;6597;52.218;9.882;2022-07-23T00:15:38;6.57;;;5.03;;
13061;SDS011;6597;52.218;9.882;2022-07-23T00:18:04;7.60;;;4.83;;
13061;SDS011;6597;52.218;9.882;2022-07-23T00:20:31;8.93;;;5.63;;
13061;SDS011;6597;52.218;9.882;2022-07-23T00:22:57;10.57;;;5.33;;
13061;SDS011;6597;52.218;9.882;2022-07-23T00:25:24;8.17;;;5.37;;
13061;SDS011;6597;52.218;9.882;2022-07-23T00:27:52;10.63;;;5.00;;
13061;SDS011;6597;52.218;9.882;2022-07-23T00:30:19;7.57;;;5.23;;
13061;SDS011;6597;52.218;9.882;2022-07-23T00:32:48;8.10;;;5.33;;
13061;SDS011;6597;52.218;9.882;2022-07-23T00:35:15;8.13;;;5.20;;
13061;SDS011;6597;52.218;9.882;2022-07-23T00:37:42;7.50;;;4.73;;
13061;SDS011;6597;52.218;9.882;2022-07-23T00:40:10;10.53;;;5.77;;
13061;SDS011;6597;52.218;9.882;2022-07-23T00:42:37;7.13;;;5.10;;
13061;SDS011;6597;52.218;9.882;2022-07-23T00:45:04;7.40;;;5.20;;
13061;SDS011;6597;52.218;9.882;2022-07-23T00:47:32;6.97;;;5.20;;
13061;SDS011;6597;52.218;9.882;2022-07-23T00:50:00;8.60;;;5.20;;
13061;SDS011;6597;52.218;9.882;2022-07-23T00:52:27;9.13;;;5.30;;
13061;SDS011;6597;52.218;9.882;2022-07-23T00:54:55;10.40;;;6.03;;
13061;SDS011;6597;52.218;9.882;2022-07-23T00:57:22;10.60;;;5.43;;
13061;SDS011;6597;52.218;9.882;2022-07-23T00:59:48;8.10;;;5.20;;
13061;SDS011;6597;52.218;9.882;2022-07-23T01:02:15;10.97;;;5.93;;
13061;SDS011;6597;52.218;9.882;2022-07-23T01:04:42;10.07;;;6.10;;
13061;SDS011;6597;52.218;9.882;2022-07-23T01:07:10;8.40;;;5.83;;
13061;SDS011;6597;52.218;9.882;2022-07-23T01:09:36;8.63;;;5.80;;
13061;SDS011;6597;52.218;9.882;2022-07-23T01:12:04;11.07;;;6.03;;
13061;SDS011;6597;52.218;9.882;2022-07-23T01:14:32;10.33;;;5.50;;
13061;SDS011;6597;52.218;9.882;2022-07-23T01:16:59;12.03;;;5.33;;
13061;SDS011;6597;52.218;9.882;2022-07-23T01:19:25;15.03;;;6.60;;
13061;SDS011;6597;52.218;9.882;2022-07-23T01:21:52;11.43;;;5.77;;
13061;SDS011;6597;52.218;9.882;2022-07-23T01:24:21;9.10;;;5.40;;
13061;SDS011;6597;52.218;9.882;2022-07-23T01:26:56;8.70;;;5.83;;
13061;SDS011;6597;52.218;9.882;2022-07-23T01:29:23;10.60;;;5.30;;
13061;SDS011;6597;52.218;9.882;2022-07-23T01:31:50;7.87;;;5.67;;
13061;SDS011;6597;52.218;9.882;2022-07-23T01:34:17;9.17;;;5.67;;
13061;SDS011;6597;52.218;9.882;2022-07-23T01:36:43;7.70;;;5.37;;
13061;SDS011;6597;52.218;9.882;2022-07-23T01:39:10;6.27;;;4.90;;
13061;SDS011;6597;52.218;9.882;2022-07-23T01:41:38;9.57;;;5.90;;
13061;SDS011;6597;52.218;9.882;2022-07-23T01:44:05;9.23;;;5.13;;
13061;SDS011;6597;52.218;9.882;2022-07-23T01:46:32;9.90;;;5.13;;
13061;SDS011;6597;52.218;9.882;2022-07-23T01:48:59;9.23;;;5.33;;
13061;SDS011;6597;52.218;9.882;2022-07-23T01:51:45;11.13;;;5.47;;
13061;SDS011;6597;52.218;9.882;2022-07-23T01:54:30;8.13;;;5.63;;
13061;SDS011;6597;52.218;9.882;2022-07-23T01:57:00;9.60;;;5.47;;
13061;SDS011;6597;52.218;9.882;2022-07-23T01:59:28;8.90;;;5.43;;
13061;SDS011;6597;52.218;9.882;2022-07-23T02:01:54;10.03;;;5.90;;
13061;SDS011;6597;52.218;9.882;2022-07-23T02:04:22;7.77;;;5.27;;
13061;SDS011;6597;52.218;9.882;2022-07-23T02:06:50;13.37;;;4.97;;
13061;SDS011;6597;52.218;9.882;2022-07-23T02:09:17;6.53;;;4.60;;
13061;SDS011;6597;52.218;9.882;2022-07-23T02:11:45;9.47;;;5.20;;
13061;SDS011;6597;52.218;9.882;2022-07-23T02:14:14;9.30;;;5.50;;
13061;SDS011;6597;52.218;9.882;2022-07-23T02:16:40;8.07;;;5.33;;
13061;SDS011;6597;52.218;9.882;2022-07-23T02:19:07;7.63;;;5.77;;
13061;SDS011;6597;52.218;9.882;2022-07-23T02:21:35;10.37;;;5.03;;
13061;SDS011;6597;52.218;9.882;2022-07-23T02:24:02;8.30;;;5.40;;
13061;SDS011;6597;52.218;9.882;2022-07-23T02:26:29;10.17;;;5.57;;
13061;SDS011;6597;52.218;9.882;2022-07-23T02:28:59;8.83;;;5.60;;
13061;SDS011;6597;52.218;9.882;2022-07-23T02:31:26;8.47;;;5.13;;
13061;SDS011;6597;52.218;9.882;2022-07-23T02:33:55;13.13;;;6.17;;
13061;SDS011;6597;52.218;9.882;2022-07-23T02:36:22;8.13;;;5.23;;
13061;SDS011;6597;52.218;9.882;2022-07-23T02:38:51;10.17;;;5.60;;
13061;SDS011;6597;52.218;9.882;2022-07-23T02:41:18;8.83;;;5.30;;
13061;SDS011;6597;52.218;9.882;2022-07-23T02:43:45;12.47;;;5.80;;
13061;SDS011;6597;52.218;9.882;2022-07-23T02:46:13;8.17;;;5.47;;
13061;SDS011;6597;52.218;9.882;2022-07-23T02:48:41;9.23;;;5.47;;
13061;SDS011;6597;52.218;9.882;2022-07-23T02:51:08;9.70;;;5.97;;
13061;SDS011;6597;52.218;9.882;2022-07-23T02:53:40;13.00;;;5.43;;
13061;SDS011;6597;52.218;9.882;2022-07-23T02:56:07;9.67;;;5.63;;
13061;SDS011;6597;52.218;9.882;2022-07-23T02:58:34;6.87;;;5.07;;
13061;SDS011;6597;52.218;9.882;2022-07-23T03:01:01;14.97;;;5.97;;
13061;SDS011;6597;52.218;9.882;2022-07-23T03:03:28;7.90;;;5.47;;
13061;SDS011;6597;52.218;9.882;2022-07-23T03:05:56;13.37;;;6.10;;
13061;SDS011;6597;52.218;9.882;2022-07-23T03:08:23;6.70;;;5.00;;
13061;SDS011;6597;52.218;9.882;2022-07-23T03:10:51;10.27;;;5.77;;
13061;SDS011;6597;52.218;9.882;2022-07-23T03:13:17;9.50;;;6.40;;
13061;SDS011;6597;52.218;9.882;2022-07-23T03:15:44;11.07;;;6.83;;
13061;SDS011;6597;52.218;9.882;2022-07-23T03:18:11;8.67;;;5.87;;
13061;SDS011;6597;52.218;9.882;2022-07-23T03:20:37;8.60;;;5.70;;
13061;SDS011;6597;52.218;9.882;2022-07-23T03:23:05;11.40;;;6.27;;
13061;SDS011;6597;52.218;9.882;2022-07-23T03:25:32;11.37;;;6.13;;
13061;SDS011;6597;52.218;9.882;2022-07-23T03:27:59;9.27;;;5.50;;
13061;SDS011;6597;52.218;9.882;2022-07-23T03:30:27;10.17;;;5.50;;
13061;SDS011;6597;52.218;9.882;2022-07-23T03:32:53;10.30;;;6.13;;
13061;SDS011;6597;52.218;9.882;2022-07-23T03:35:20;12.73;;;6.43;;
13061;SDS011;6597;52.218;9.882;2022-07-23T03:38:09;9.57;;;6.20;;
13061;SDS011;6597;52.218;9.882;2022-07-23T03:40:36;14.30;;;5.90;;
13061;SDS011;6597;52.218;9.882;2022-07-23T03:43:02;11.40;;;6.10;;
13061;SDS011;6597;52.218;9.882;2022-07-23T03:45:29;9.63;;;5.83;;
13061;SDS011;6597;52.218;9.882;2022-07-23T03:47:56;10.67;;;6.47;;
13061;SDS011;6597;52.218;9.882;2022-07-23T03:50:23;8.67;;;5.90;;
13061;SDS011;6597;52.218;9.882;2022-07-23T03:52:50;8.90;;;5.23;;
13061;SDS011;6597;52.218;9.882;2022-07-23T03:55:18;9.13;;;5.87;;
13061;SDS011;6597;52.218;9.882;2022-07-23T03:57:45;8.40;;;6.17;;
13061;SDS011;6597;52.218;9.882;2022-07-23T04:00:12;12.50;;;5.77;;
13061;SDS011;6597;52.218;9.882;2022-07-23T04:05:08;15.13;;;6.77;;
13061;SDS011;6597;52.218;9.882;2022-07-23T04:07:36;7.60;;;5.43;;
13061;SDS011;6597;52.218;9.882;2022-07-23T04:10:02;9.63;;;6.40;;
13061;SDS011;6597;52.218;9.882;2022-07-23T04:12:31;10.57;;;5.83;;
13061;SDS011;6597;52.218;9.882;2022-07-23T04:14:57;9.10;;;6.27;;
13061;SDS011;6597;52.218;9.882;2022-07-23T04:17:24;9.53;;;6.43;;
13061;SDS011;6597;52.218;9.882;2022-07-23T04:19:51;11.17;;;5.93;;
13061;SDS011;6597;52.218;9.882;2022-07-23T04:22:21;11.03;;;6.33;;
13061;SDS011;6597;52.218;9.882;2022-07-23T04:24:48;10.97;;;6.20;;
13061;SDS011;6597;52.218;9.882;2022-07-23T04:27:15;12.90;;;6.17;;
13061;SDS011;6597;52.218;9.882;2022-07-23T04:29:43;11.27;;;6.50;;
13061;SDS011;6597;52.218;9.882;2022-07-23T04:32:10;10.63;;;6.53;;
13061;SDS011;6597;52.218;9.882;2022-07-23T04:34:36;10.13;;;6.20;;
13061;SDS011;6597;52.218;9.882;2022-07-23T04:37:04;9.97;;;6.40;;
13061;SDS011;6597;52.218;9.882;2022-07-23T04:39:31;11.37;;;6.50;;
13061;SDS011;6597;52.218;9.882;2022-07-23T04:41:58;10.23;;;6.03;;
13061;SDS011;6597;52.218;9.882;2022-07-23T04:44:25;8.43;;;6.20;;
13061;SDS011;6597;52.218;9.882;2022-07-23T04:46:53;13.93;;;6.43;;
13061;SDS011;6597;52.218;9.882;2022-07-23T04:49:19;9.63;;;5.47;;
13061;SDS011;6597;52.218;9.882;2022-07-23T04:51:47;9.77;;;5.77;;
13061;SDS011;6597;52.218;9.882;2022-07-23T04:54:14;10.43;;;5.00;;
13061;SDS011;6597;52.218;9.882;2022-07-23T04:56:42;9.27;;;5.63;;
13061;SDS011;6597;52.218;9.882;2022-07-23T04:59:09;13.30;;;6.30;;
13061;SDS011;6597;52.218;9.882;2022-07-23T05:01:36;13.10;;;5.70;;
13061;SDS011;6597;52.218;9.882;2022-07-23T05:04:04;8.93;;;5.80;;
13061;SDS011;6597;52.218;9.882;2022-07-23T05:06:33;12.83;;;5.70;;
13061;SDS011;6597;52.218;9.882;2022-07-23T05:09:00;9.70;;;5.30;;
13061;SDS011;6597;52.218;9.882;2022-07-23T05:11:28;9.43;;;5.23;;
13061;SDS011;6597;52.218;9.882;2022-07-23T05:13:55;12.20;;;6.07;;
13061;SDS011;6597;52.218;9.882;2022-07-23T05:16:22;9.23;;;4.90;;
13061;SDS011;6597;52.218;9.882;2022-07-23T05:18:50;10.00;;;5.53;;
13061;SDS011;6597;52.218;9.882;2022-07-23T05:21:18;5.97;;;5.03;;
13061;SDS011;6597;52.218;9.882;2022-07-23T05:23:45;10.87;;;5.90;;
13061;SDS011;6597;52.218;9.882;2022-07-23T05:26:12;10.10;;;5.87;;
13061;SDS011;6597;52.218;9.882;2022-07-23T05:28:38;11.27;;;5.77;;
13061;SDS011;6597;52.218;9.882;2022-07-23T05:31:05;13.97;;;6.27;;
13061;SDS011;6597;52.218;9.882;2022-07-23T05:33:32;8.80;;;5.53;;
13061;SDS011;6597;52.218;9.882;2022-07-23T05:36:00;11.27;;;5.93;;
13061;SDS011;6597;52.218;9.882;2022-07-23T05:38:30;9.33;;;5.90;;
13061;SDS011;6597;52.218;9.882;2022-07-23T05:40:58;12.80;;;6.50;;
13061;SDS011;6597;52.218;9.882;2022-07-23T05:43:26;9.30;;;5.40;;
13061;SDS011;6597;52.218;9.882;2022-07-23T05:45:54;11.33;;;6.10;;
13061;SDS011;6597;52.218;9.882;2022-07-23T05:48:21;9.27;;;6.07;;
13061;SDS011;6597;52.218;9.882;2022-07-23T05:51:11;9.53;;;5.63;;
13061;SDS011;6597;52.218;9.882;2022-07-23T05:53:39;15.23;;;5.37;;
13061;SDS011;6597;52.218;9.882;2022-07-23T05:56:13;8.07;;;5.07;;
13061;SDS011;6597;52.218;9.882;2022-07-23T05:58:40;9.83;;;4.97;;
13061;SDS011;6597;52.218;9.882;2022-07-23T06:01:07;8.10;;;4.30;;
13061;SDS011;6597;52.218;9.882;2022-07-23T06:03:42;7.73;;;4.33;;
13061;SDS011;6597;52.218;9.882;2022-07-23T06:06:09;8.87;;;4.53;;
13061;SDS011;6597;52.218;9.882;2022-07-23T06:08:38;7.00;;;4.57;;
13061;SDS011;6597;52.218;9.882;2022-07-23T06:11:07;9.37;;;4.23;;
13061;SDS011;6597;52.218;9.882;2022-07-23T06:13:34;5.00;;;3.67;;
13061;SDS011;6597;52.218;9.882;2022-07-23T06:16:01;7.87;;;4.13;;
13061;SDS011;6597;52.218;9.882;2022-07-23T06:18:29;7.97;;;3.87;;
13061;SDS011;6597;52.218;9.882;2022-07-23T06:20:55;6.57;;;4.50;;
13061;SDS011;6597;52.218;9.882;2022-07-23T06:23:22;6.23;;;4.33;;
13061;SDS011;6597;52.218;9.882;2022-07-23T06:25:50;6.83;;;3.77;;
13061;SDS011;6597;52.218;9.882;2022-07-23T06:28:19;5.90;;;3.90;;
13061;SDS011;6597;52.218;9.882;2022-07-23T06:30:45;5.95;;;3.63;;
13061;SDS011;6597;52.218;9.882;2022-07-23T06:33:12;6.47;;;3.60;;
13061;SDS011;6597;52.218;9.882;2022-07-23T06:35:38;9.52;;;3.75;;
13061;SDS011;6597;52.218;9.882;2022-07-23T06:38:06;5.18;;;3.75;;
13061;SDS011;6597;52.218;9.882;2022-07-23T06:40:33;6.78;;;4.20;;
13061;SDS011;6597;52.218;9.882;2022-07-23T06:43:02;6.78;;;3.63;;
13061;SDS011;6597;52.218;9.882;2022-07-23T06:45:29;5.53;;;3.90;;
13061;SDS011;6597;52.218;9.882;2022-07-23T06:47:55;5.40;;;3.63;;
13061;SDS011;6597;52.218;9.882;2022-07-23T06:50:22;5.20;;;3.20;;
13061;SDS011;6597;52.218;9.882;2022-07-23T06:52:48;8.07;;;3.10;;
13061;SDS011;6597;52.218;9.882;2022-07-23T06:55:15;3.88;;;2.95;;
13061;SDS011;6597;52.218;9.882;2022-07-23T06:57:44;7.38;;;3.38;;
13061;SDS011;6597;52.218;9.882;2022-07-23T07:00:14;3.88;;;2.75;;
13061;SDS011;6597;52.218;9.882;2022-07-23T07:02:41;6.93;;;2.30;;
13061;SDS011;6597;52.218;9.882;2022-07-23T07:05:08;8.85;;;3.20;;
13061;SDS011;6597;52.218;9.882;2022-07-23T07:07:35;4.32;;;2.67;;
13061;SDS011;6597;52.218;9.882;2022-07-23T07:10:02;4.97;;;2.90;;
13061;SDS011;6597;52.218;9.882;2022-07-23T07:12:29;3.70;;;2.58;;
13061;SDS011;6597;52.218;9.882;2022-07-23T07:14:55;4.13;;;2.65;;
13061;SDS011;6597;52.218;9.882;2022-07-23T07:17:24;8.55;;;3.40;;
13061;SDS011;6597;52.218;9.882;2022-07-23T07:19:50;7.50;;;3.85;;
13061;SDS011;6597;52.218;9.882;2022-07-23T07:22:17;6.97;;;3.63;;
13061;SDS011;6597;52.218;9.882;2022-07-23T07:24:44;5.93;;;3.00;;
13061;SDS011;6597;52.218;9.882;2022-07-23T07:27:10;7.90;;;3.50;;
13061;SDS011;6597;52.218;9.882;2022-07-23T07:29:37;3.60;;;2.80;;
13061;SDS011;6597;52.218;9.882;2022-07-23T07:32:04;6.95;;;2.28;;
13061;SDS011;6597;52.218;9.882;2022-07-23T07:34:33;4.78;;;2.92;;
13061;SDS011;6597;52.218;9.882;2022-07-23T07:36:59;4.18;;;2.60;;
13061;SDS011;6597;52.218;9.882;2022-07-23T07:39:26;4.18;;;2.55;;
13061;SDS011;6597;52.218;9.882;2022-07-23T07:41:52;4.32;;;2.30;;
13061;SDS011;6597;52.218;9.882;2022-07-23T07:44:19;5.95;;;2.85;;
13061;SDS011;6597;52.218;9.882;2022-07-23T07:46:46;4.38;;;2.03;;
13061;SDS011;6597;52.218;9.882;2022-07-23T07:49:12;4.80;;;2.55;;
13061;SDS011;6597;52.218;9.882;2022-07-23T07:51:40;3.53;;;2.63;;
13061;SDS011;6597;52.218;9.882;2022-07-23T07:54:07;4.97;;;2.40;;
13061;SDS011;6597;52.218;9.882;2022-07-23T07:56:33;5.18;;;2.25;;
13061;SDS011;6597;52.218;9.882;2022-07-23T07:59:00;6.07;;;2.22;;
13061;SDS011;6597;52.218;9.882;2022-07-23T08:01:27;4.32;;;2.15;;
13061;SDS011;6597;52.218;9.882;2022-07-23T08:03:53;7.07;;;2.10;;
13061;SDS011;6597;52.218;9.882;2022-07-23T08:06:20;3.75;;;2.45;;
13061;SDS011;6597;52.218;9.882;2022-07-23T08:08:48;4.28;;;2.63;;
13061;SDS011;6597;52.218;9.882;2022-07-23T08:11:14;2.78;;;2.30;;
13061;SDS011;6597;52.218;9.882;2022-07-23T08:13:41;3.72;;;2.45;;
13061;SDS011;6597;52.218;9.882;2022-07-23T08:16:09;2.97;;;2.30;;
13061;SDS011;6597;52.218;9.882;2022-07-23T08:18:35;6.05;;;2.67;;
13061;SDS011;6597;52.218;9.882;2022-07-23T08:21:02;4.65;;;2.28;;
13061;SDS011;6597;52.218;9.882;2022-07-23T08:23:30;3.25;;;2.53;;
13061;SDS011;6597;52.218;9.882;2022-07-23T08:25:58;10.57;;;2.97;;
13061;SDS011;6597;52.218;9.882;2022-07-23T08:28:26;3.50;;;2.75;;
13061;SDS011;6597;52.218;9.882;2022-07-23T08:30:53;8.10;;;2.95;;
13061;SDS011;6597;52.218;9.882;2022-07-23T08:33:19;2.83;;;2.45;;
13061;SDS011;6597;52.218;9.882;2022-07-23T08:35:46;4.10;;;3.03;;
13061;SDS011;6597;52.218;9.882;2022-07-23T08:38:15;4.68;;;2.20;;
13061;SDS011;6597;52.218;9.882;2022-07-23T08:40:44;4.78;;;1.75;;
13061;SDS011;6597;52.218;9.882;2022-07-23T08:43:14;2.85;;;2.00;;
13061;SDS011;6597;52.218;9.882;2022-07-23T08:45:42;6.30;;;2.15;;
13061;SDS011;6597;52.218;9.882;2022-07-23T08:48:14;2.05;;;1.83;;
13061;SDS011;6597;52.218;9.882;2022-07-23T08:50:45;4.60;;;1.90;;
13061;SDS011;6597;52.218;9.882;2022-07-23T08:53:13;2.55;;;1.88;;
13061;SDS011;6597;52.218;9.882;2022-07-23T08:55:43;2.78;;;1.90;;
13061;SDS011;6597;52.218;9.882;2022-07-23T08:58:10;2.10;;;1.65;;
13061;SDS011;6597;52.218;9.882;2022-07-23T09:00:39;2.38;;;1.63;;
13061;SDS011;6597;52.218;9.882;2022-07-23T09:03:05;2.05;;;1.55;;
13061;SDS011;6597;52.218;9.882;2022-07-23T09:05:32;3.08;;;1.63;;
13061;SDS011;6597;52.218;9.882;2022-07-23T09:08:06;1.50;;;1.40;;
13061;SDS011;6597;52.218;9.882;2022-07-23T09:10:48;1.90;;;1.65;;
13061;SDS011;6597;52.218;9.882;2022-07-23T09:13:30;2.35;;;1.70;;
13061;SDS011;6597;52.218;9.882;2022-07-23T09:16:02;2.85;;;1.60;;
13061;SDS011;6597;52.218;9.882;2022-07-23T09:18:37;4.32;;;1.83;;
13061;SDS011;6597;52.218;9.882;2022-07-23T09:21:16;3.13;;;1.95;;
13061;SDS011;6597;52.218;9.882;2022-07-23T09:23:45;1.92;;;1.73;;
13061;SDS011;6597;52.218;9.882;2022-07-23T09:26:17;2.45;;;1.55;;
13061;SDS011;6597;52.218;9.882;2022-07-23T09:28:55;2.60;;;1.70;;
13061;SDS011;6597;52.218;9.882;2022-07-23T09:31:25;4.18;;;1.58;;
13061;SDS011;6597;52.218;9.882;2022-07-23T09:34:05;2.40;;;1.80;;
13061;SDS011;6597;52.218;9.882;2022-07-23T09:36:36;1.60;;;1.50;;
13061;SDS011;6597;52.218;9.882;2022-07-23T09:39:03;2.85;;;1.83;;
13061;SDS011;6597;52.218;9.882;2022-07-23T09:41:35;2.55;;;1.73;;
13061;SDS011;6597;52.218;9.882;2022-07-23T09:44:07;4.55;;;1.80;;
13061;SDS011;6597;52.218;9.882;2022-07-23T09:46:39;2.78;;;1.90;;
13061;SDS011;6597;52.218;9.882;2022-07-23T09:49:13;1.88;;;1.60;;
13061;SDS011;6597;52.218;9.882;2022-07-23T09:51:46;2.33;;;1.77;;
13061;SDS011;6597;52.218;9.882;2022-07-23T09:54:21;3.33;;;1.60;;
13061;SDS011;6597;52.218;9.882;2022-07-23T09:56:53;3.33;;;1.92;;
13061;SDS011;6597;52.218;9.882;2022-07-23T09:59:22;2.00;;;1.80;;
13061;SDS011;6597;52.218;9.882;2022-07-23T10:01:53;2.33;;;1.80;;
13061;SDS011;6597;52.218;9.882;2022-07-23T10:04:21;2.00;;;1.80;;
13061;SDS011;6597;52.218;9.882;2022-07-23T10:06:55;1.88;;;1.45;;
13061;SDS011;6597;52.218;9.882;2022-07-23T10:09:41;4.40;;;1.85;;
13061;SDS011;6597;52.218;9.882;2022-07-23T10:12:26;2.08;;;1.48;;
13061;SDS011;6597;52.218;9.882;2022-07-23T10:15:11;2.80;;;1.70;;
13061;SDS011;6597;52.218;9.882;2022-07-23T10:17:40;2.13;;;1.67;;
13061;SDS011;6597;52.218;9.882;2022-07-23T10:20:06;2.83;;;1.70;;
13061;SDS011;6597;52.218;9.882;2022-07-23T10:22:33;2.33;;;1.65;;
13061;SDS011;6597;52.218;9.882;2022-07-23T10:25:10;1.90;;;1.40;;
13061;SDS011;6597;52.218;9.882;2022-07-23T10:27:51;4.32;;;1.75;;
13061;SDS011;6597;52.218;9.882;2022-07-23T10:30:30;2.88;;;1.45;;
13061;SDS011;6597;52.218;9.882;2022-07-23T10:33:17;2.17;;;1.67;;
13061;SDS011;6597;52.218;9.882;2022-07-23T10:35:53;3.00;;;1.73;;
13061;SDS011;6597;52.218;9.882;2022-07-23T10:38:28;2.45;;;1.33;;
13061;SDS011;6597;52.218;9.882;2022-07-23T10:41:00;4.78;;;1.48;;
13061;SDS011;6597;52.218;9.882;2022-07-23T10:43:29;2.75;;;1.88;;
13061;SDS011;6597;52.218;9.882;2022-07-23T10:46:20;3.45;;;1.80;;
13061;SDS011;6597;52.218;9.882;2022-07-23T10:54:44;3.83;;;1.88;;
13061;SDS011;6597;52.218;9.882;2022-07-23T10:57:12;2.38;;;1.70;;
13061;SDS011;6597;52.218;9.882;2022-07-23T11:02:37;3.08;;;1.58;;
13061;SDS011;6597;52.218;9.882;2022-07-23T11:05:07;1.60;;;1.50;;
13061;SDS011;6597;52.218;9.882;2022-07-23T11:07:36;1.92;;;1.63;;
13061;SDS011;6597;52.218;9.882;2022-07-23T11:10:03;1.55;;;1.25;;
13061;SDS011;6597;52.218;9.882;2022-07-23T11:12:33;3.63;;;1.40;;
13061;SDS011;6597;52.218;9.882;2022-07-23T11:15:02;2.20;;;1.52;;
13061;SDS011;6597;52.218;9.882;2022-07-23T11:17:35;1.65;;;1.30;;
13061;SDS011;6597;52.218;9.882;2022-07-23T11:20:13;2.63;;;1.70;;
13061;SDS011;6597;52.218;9.882;2022-07-23T11:22:46;2.05;;;1.73;;
13061;SDS011;6597;52.218;9.882;2022-07-23T11:25:28;2.55;;;1.50;;
13061;SDS011;6597;52.218;9.882;2022-07-23T11:28:07;1.85;;;1.50;;
13061;SDS011;6597;52.218;9.882;2022-07-23T11:30:39;1.67;;;1.40;;
13061;SDS011;6597;52.218;9.882;2022-07-23T11:33:18;2.40;;;1.80;;
13061;SDS011;6597;52.218;9.882;2022-07-23T11:35:48;2.35;;;1.50;;
13061;SDS011;6597;52.218;9.882;2022-07-23T11:38:26;2.30;;;1.60;;
13061;SDS011;6597;52.218;9.882;2022-07-23T11:40:55;3.15;;;1.70;;
13061;SDS011;6597;52.218;9.882;2022-07-23T11:43:23;2.10;;;1.45;;
13061;SDS011;6597;52.218;9.882;2022-07-23T11:45:51;2.20;;;1.17;;
13061;SDS011;6597;52.218;9.882;2022-07-23T11:48:20;1.60;;;1.20;;
13061;SDS011;6597;52.218;9.882;2022-07-23T11:50:49;3.10;;;1.40;;
13061;SDS011;6597;52.218;9.882;2022-07-23T11:53:23;2.17;;;1.63;;
13061;SDS011;6597;52.218;9.882;2022-07-23T11:55:51;2.35;;;1.42;;
13061;SDS011;6597;52.218;9.882;2022-07-23T11:58:19;2.35;;;1.20;;
13061;SDS011;6597;52.218;9.882;2022-07-23T12:00:47;1.45;;;1.35;;
13061;SDS011;6597;52.218;9.882;2022-07-23T12:03:16;1.95;;;1.35;;
13061;SDS011;6597;52.218;9.882;2022-07-23T12:05:42;1.70;;;1.20;;
13061;SDS011;6597;52.218;9.882;2022-07-23T12:08:10;3.30;;;1.42;;
13061;SDS011;6597;52.218;9.882;2022-07-23T12:10:37;1.20;;;1.10;;
13061;SDS011;6597;52.218;9.882;2022-07-23T12:13:07;1.90;;;1.33;;
13061;SDS011;6597;52.218;9.882;2022-07-23T12:15:36;1.88;;;1.13;;
13061;SDS011;6597;52.218;9.882;2022-07-23T12:18:06;1.70;;;1.02;;
13061;SDS011;6597;52.218;9.882;2022-07-23T12:20:34;1.73;;;1.25;;
13061;SDS011;6597;52.218;9.882;2022-07-23T12:23:03;1.33;;;1.15;;
13061;SDS011;6597;52.218;9.882;2022-07-23T12:25:33;1.00;;;0.93;;
13061;SDS011;6597;52.218;9.882;2022-07-23T12:28:03;1.45;;;1.17;;
13061;SDS011;6597;52.218;9.882;2022-07-23T12:30:32;1.13;;;1.02;;
13061;SDS011;6597;52.218;9.882;2022-07-23T12:33:02;2.85;;;1.30;;
13061;SDS011;6597;52.218;9.882;2022-07-23T12:35:31;1.33;;;1.17;;
13061;SDS011;6597;52.218;9.882;2022-07-23T12:38:03;1.33;;;1.15;;
13061;SDS011;6597;52.218;9.882;2022-07-23T12:40:34;1.70;;;1.05;;
13061;SDS011;6597;52.218;9.882;2022-07-23T12:43:03;0.68;;;0.63;;
13061;SDS011;6597;52.218;9.882;2022-07-23T12:45:42;1.48;;;1.08;;
13061;SDS011;6597;52.218;9.882;2022-07-23T12:48:15;1.13;;;0.90;;
13061;SDS011;6597;52.218;9.882;2022-07-23T12:50:44;2.67;;;1.10;;
13061;SDS011;6597;52.218;9.882;2022-07-23T12:53:16;2.17;;;1.17;;
13061;SDS011;6597;52.218;9.882;2022-07-23T12:55:45;3.20;;;1.20;;
13061;SDS011;6597;52.218;9.882;2022-07-23T12:58:14;1.10;;;0.85;;
13061;SDS011;6597;52.218;9.882;2022-07-23T13:00:52;1.30;;;1.17;;
13061;SDS011;6597;52.218;9.882;2022-07-23T13:03:31;1.80;;;0.82;;
13061;SDS011;6597;52.218;9.882;2022-07-23T13:06:00;1.70;;;1.20;;
13061;SDS011;6597;52.218;9.882;2022-07-23T13:08:28;1.73;;;0.90;;
13061;SDS011;6597;52.218;9.882;2022-07-23T13:10:58;1.20;;;0.95;;
13061;SDS011;6597;52.218;9.882;2022-07-23T13:13:26;1.05;;;0.95;;
13061;SDS011;6597;52.218;9.882;2022-07-23T13:15:54;3.78;;;1.10;;
13061;SDS011;6597;52.218;9.882;2022-07-23T13:18:21;2.78;;;1.30;;
13061;SDS011;6597;52.218;9.882;2022-07-23T13:20:48;1.92;;;0.85;;
13061;SDS011;6597;52.218;9.882;2022-07-23T13:23:15;2.58;;;0.90;;
13061;SDS011;6597;52.218;9.882;2022-07-23T13:25:42;1.10;;;1.00;;
13061;SDS011;6597;52.218;9.882;2022-07-23T13:28:10;1.75;;;1.13;;
13061;SDS011;6597;52.218;9.882;2022-07-23T13:30:37;1.40;;;1.00;;
13061;SDS011;6597;52.218;9.882;2022-07-23T13:33:04;2.28;;;1.05;;
13061;SDS011;6597;52.218;9.882;2022-07-23T13:35:31;1.65;;;1.30;;
13061;SDS011;6597;52.218;9.882;2022-07-23T13:37:58;0.75;;;0.75;;
13061;SDS011;6597;52.218;9.882;2022-07-23T13:40:24;1.10;;;1.00;;
13061;SDS011;6597;52.218;9.882;2022-07-23T13:42:52;1.20;;;1.00;;
13061;SDS011;6597;52.218;9.882;2022-07-23T13:45:20;1.70;;;1.20;;
13061;SDS011;6597;52.218;9.882;2022-07-23T13:47:47;2.67;;;1.20;;
13061;SDS011;6597;52.218;9.882;2022-07-23T13:50:13;1.42;;;0.95;;
13061;SDS011;6597;52.218;9.882;2022-07-23T13:52:41;1.00;;;1.00;;
13061;SDS011;6597;52.218;9.882;2022-07-23T13:55:08;1.23;;;0.90;;
13061;SDS011;6597;52.218;9.882;2022-07-23T13:57:35;1.38;;;0.93;;
13061;SDS011;6597;52.218;9.882;2022-07-23T14:00:02;0.82;;;0.82;;
13061;SDS011;6597;52.218;9.882;2022-07-23T14:02:32;0.80;;;0.80;;
13061;SDS011;6597;52.218;9.882;2022-07-23T14:04:58;1.20;;;1.02;;
13061;SDS011;6597;52.218;9.882;2022-07-23T14:07:25;1.50;;;1.00;;
13061;SDS011;6597;52.218;9.882;2022-07-23T14:09:52;1.05;;;0.98;;
13061;SDS011;6597;52.218;9.882;2022-07-23T14:12:18;1.95;;;1.05;;
13061;SDS011;6597;52.218;9.882;2022-07-23T14:14:45;0.82;;;0.80;;
13061;SDS011;6597;52.218;9.882;2022-07-23T14:17:11;0.90;;;0.80;;
13061;SDS011;6597;52.218;9.882;2022-07-23T14:19:40;3.80;;;0.90;;
13061;SDS011;6597;52.218;9.882;2022-07-23T14:22:06;0.93;;;0.93;;
13061;SDS011;6597;52.218;9.882;2022-07-23T14:24:33;0.80;;;0.75;;
13061;SDS011;6597;52.218;9.882;2022-07-23T14:27:00;1.17;;;0.73;;
13061;SDS011;6597;52.218;9.882;2022-07-23T14:29:27;1.23;;;0.82;;
13061;SDS011;6597;52.218;9.882;2022-07-23T14:31:55;1.55;;;1.15;;
13061;SDS011;6597;52.218;9.882;2022-07-23T14:34:21;1.33;;;0.80;;
13061;SDS011;6597;52.218;9.882;2022-07-23T14:36:49;1.35;;;0.93;;
13061;SDS011;6597;52.218;9.882;2022-07-23T14:39:16;1.15;;;0.90;;
13061;SDS011;6597;52.218;9.882;2022-07-23T14:41:43;1.17;;;0.80;;
13061;SDS011;6597;52.218;9.882;2022-07-23T14:44:10;0.73;;;0.73;;
13061;SDS011;6597;52.218;9.882;2022-07-23T14:46:36;1.35;;;0.93;;
13061;SDS011;6597;52.218;9.882;2022-07-23T14:49:03;1.63;;;0.77;;
13061;SDS011;6597;52.218;9.882;2022-07-23T14:51:30;2.83;;;0.82;;
13061;SDS011;6597;52.218;9.882;2022-07-23T14:53:58;0.70;;;0.70;;
13061;SDS011;6597;52.218;9.882;2022-07-23T14:56:24;3.10;;;0.60;;
13061;SDS011;6597;52.218;9.882;2022-07-23T14:58:51;4.00;;;0.98;;
13061;SDS011;6597;52.218;9.882;2022-07-23T15:01:17;4.03;;;0.63;;
13061;SDS011;6597;52.218;9.882;2022-07-23T15:03:44;1.05;;;0.73;;
13061;SDS011;6597;52.218;9.882;2022-07-23T15:06:11;3.53;;;0.95;;
13061;SDS011;6597;52.218;9.882;2022-07-23T15:08:37;0.82;;;0.77;;
13061;SDS011;6597;52.218;9.882;2022-07-23T15:11:05;0.82;;;0.70;;
13061;SDS011;6597;52.218;9.882;2022-07-23T15:13:34;0.60;;;0.60;;
13061;SDS011;6597;52.218;9.882;2022-07-23T15:16:00;2.13;;;0.90;;
13061;SDS011;6597;52.218;9.882;2022-07-23T15:18:27;0.85;;;0.85;;